This is the latest recevied weather packets stored in our database for station/object K1LVA. If no packets are shown the sender has not sent any weather packets the latest 10 day(s).
| Time | Temp. | Humidity | Pressure | Rain* | Wind** | Luminosity | Snow |
|---|---|---|---|---|---|---|---|
| 1778118547 | 23.89° C | 69% | 1012 hPa | 0 mm | - | 0 W/m² | - |
| 1778118243 | 24.44° C | 68% | 1011.8 hPa | 0 mm | - | 0 W/m² | - |
| 1778117940 | 24.44° C | 68% | 1011.6 hPa | 0 mm | - | 0 W/m² | - |
| 1778117637 | 24.44° C | 69% | 1011.6 hPa | 0 mm | - | 0 W/m² | - |
| 1778117334 | 24.44° C | 68% | 1011.3 hPa | 0 mm | - | 0 W/m² | - |
| 1778117029 | 24.44° C | 67% | 1011.6 hPa | 0 mm | - | 0 W/m² | - |
| 1778116727 | 24.44° C | 68% | 1011.5 hPa | 0 mm | - | 0 W/m² | - |
| 1778116424 | 25° C | 67% | 1011.3 hPa | 0 mm | - | 0 W/m² | - |
| 1778116118 | 24.44° C | 67% | 1011.6 hPa | 0 mm | - | 0 W/m² | - |
| 1778115814 | 24.44° C | 67% | 1011.7 hPa | 0 mm | - | 0 W/m² | - |
| 1778115511 | 24.44° C | 68% | 1011.8 hPa | 0 mm | - | 0 W/m² | - |
| 1778115208 | 24.44° C | 68% | 1012 hPa | 0 mm | - | 0 W/m² | - |
| 1778114905 | 24.44° C | 69% | 1012 hPa | 0 mm | - | 0 W/m² | - |
| 1778114602 | 24.44° C | 68% | 1012.2 hPa | 0 mm | - | 0 W/m² | - |
| 1778114299 | 24.44° C | 67% | 1012.1 hPa | 0 mm | - | 0 W/m² | - |
| 1778113994 | 25° C | 67% | 1012.2 hPa | 0 mm | - | 0 W/m² | - |
| 1778113689 | 25° C | 65% | 1012.1 hPa | 0 mm | - | 0 W/m² | - |
| 1778113385 | 25° C | 65% | 1012.2 hPa | 0 mm | - | 0 W/m² | - |
| 1778113077 | 25° C | 64% | 1012.6 hPa | 0 mm | - | 0 W/m² | - |
| 1778112775 | 25.56° C | 63% | 1012.2 hPa | 0 mm | - | 0 W/m² | - |
| 1778112471 | 26.11° C | 62% | 1012.2 hPa | 0 mm | - | 3 W/m² | - |
| 1778112167 | 26.11° C | 61% | 1012.3 hPa | 0 mm | - | 6 W/m² | - |
| 1778111863 | 26.67° C | 60% | 1012.2 hPa | 0 mm | - | 10 W/m² | - |
| 1778111559 | 26.67° C | 60% | 1012.2 hPa | 0 mm | - | 16 W/m² | - |
| 1778111256 | 27.22° C | 59% | 1012.1 hPa | 0 mm | - | 17 W/m² | - |
* Rain latest hour (hover to see other rain measurements)
** Current wind speed in m/s (hover to see current wind gust speed)